createdAt,value
2022-09-02T00:01:59.365Z,4.00
2022-09-02T00:04:26.873Z,4.20
2022-09-02T00:06:54.742Z,2.83
2022-09-02T00:09:43.429Z,2.03
2022-09-02T00:12:11.122Z,2.30
2022-09-02T00:14:39.519Z,1.50
2022-09-02T00:17:06.398Z,4.43
2022-09-02T00:19:34.417Z,1.88
2022-09-02T00:22:02.799Z,2.45
2022-09-02T00:24:30.410Z,3.60
2022-09-02T00:26:57.397Z,3.70
2022-09-02T00:29:26.710Z,2.85
2022-09-02T00:31:53.784Z,2.80
2022-09-02T00:34:21.025Z,3.65
2022-09-02T00:36:47.999Z,2.85
2022-09-02T00:39:16.181Z,1.67
2022-09-02T00:41:44.621Z,6.18
2022-09-02T00:44:15.148Z,1.70
2022-09-02T00:46:44.762Z,2.63
2022-09-02T00:49:28.454Z,2.03
2022-09-02T00:52:24.133Z,2.70
2022-09-02T00:54:59.053Z,5.47
2022-09-02T00:57:32.363Z,3.85
2022-09-02T01:00:02.949Z,2.22
2022-09-02T01:02:31.741Z,3.03
2022-09-02T01:05:01.278Z,2.97
2022-09-02T01:07:40.071Z,2.20
2022-09-02T01:10:30.802Z,3.75
2022-09-02T01:13:00.731Z,3.70
2022-09-02T01:15:32.315Z,3.97
2022-09-02T01:18:00.567Z,2.38
2022-09-02T01:20:27.602Z,4.35
2022-09-02T01:22:55.240Z,2.90
2022-09-02T01:25:27.454Z,2.58
2022-09-02T01:28:23.451Z,3.33
2022-09-02T01:30:54.905Z,2.75
2022-09-02T01:33:25.298Z,4.07
2022-09-02T01:35:53.587Z,3.65
2022-09-02T01:38:21.816Z,4.22
2022-09-02T01:40:49.515Z,2.72
2022-09-02T01:43:20.344Z,1.50
2022-09-02T01:45:51.192Z,4.40
2022-09-02T01:48:21.867Z,3.83
2022-09-02T01:50:55.242Z,3.22
2022-09-02T01:53:40.752Z,2.55
2022-09-02T01:56:07.744Z,3.58
2022-09-02T01:58:34.850Z,3.53
2022-09-02T02:01:02.084Z,2.63
2022-09-02T02:03:29.450Z,2.97
2022-09-02T02:05:58.693Z,1.55
2022-09-02T02:08:26.598Z,1.42
2022-09-02T02:10:53.485Z,1.05
2022-09-02T02:13:21.352Z,6.38
2022-09-02T02:15:48.529Z,2.72
2022-09-02T02:18:15.673Z,3.40
2022-09-02T02:20:45.087Z,1.67
2022-09-02T02:23:12.298Z,1.38
2022-09-02T02:25:39.305Z,1.00
2022-09-02T02:28:24.455Z,3.25
2022-09-02T02:30:52.853Z,5.95
2022-09-02T02:33:38.338Z,2.95
2022-09-02T02:36:07.862Z,2.90
2022-09-02T02:38:36.702Z,3.35
2022-09-02T02:41:06.543Z,2.42
2022-09-02T02:43:52.857Z,2.35
2022-09-02T02:46:20.050Z,1.73
2022-09-02T02:48:47.587Z,4.47
2022-09-02T02:51:15.488Z,3.55
2022-09-02T02:53:45.795Z,4.65
2022-09-02T02:56:32.425Z,6.20
2022-09-02T02:59:03.457Z,3.03
2022-09-02T03:01:32.328Z,4.05
2022-09-02T03:03:59.419Z,2.20
2022-09-02T03:06:27.577Z,2.25
2022-09-02T03:08:56.648Z,5.38
2022-09-02T03:11:25.662Z,2.38
2022-09-02T03:13:53.628Z,2.90
2022-09-02T03:16:21.520Z,2.83
2022-09-02T03:18:49.621Z,4.40
2022-09-02T03:21:18.231Z,2.92
2022-09-02T03:23:46.682Z,3.80
2022-09-02T03:26:19.015Z,3.70
2022-09-02T03:28:49.476Z,3.13
2022-09-02T03:31:21.470Z,2.53
2022-09-02T03:33:48.842Z,2.05
2022-09-02T03:36:26.578Z,4.38
2022-09-02T03:38:55.380Z,1.65
2022-09-02T03:41:22.913Z,1.33
2022-09-02T03:43:50.542Z,6.30
2022-09-02T03:46:18.283Z,2.55
2022-09-02T03:48:45.425Z,2.92
2022-09-02T03:51:13.882Z,2.80
2022-09-02T03:56:26.822Z,3.00
2022-09-02T03:58:53.800Z,3.47
2022-09-02T04:01:27.890Z,4.03
2022-09-02T04:04:00.287Z,3.25
2022-09-02T04:06:32.504Z,1.92
2022-09-02T04:09:01.941Z,4.47
2022-09-02T04:11:29.021Z,3.53
2022-09-02T04:13:55.935Z,7.65
2022-09-02T04:16:28.778Z,1.98
2022-09-02T04:19:18.433Z,3.35
2022-09-02T04:22:04.100Z,2.70
2022-09-02T04:24:32.453Z,2.58
2022-09-02T04:27:03.836Z,3.65
2022-09-02T04:29:34.785Z,3.00
2022-09-02T04:32:01.897Z,3.63
2022-09-02T04:34:28.809Z,3.78
2022-09-02T04:36:56.551Z,3.15
2022-09-02T04:39:23.804Z,5.45
2022-09-02T04:41:53.947Z,5.38
2022-09-02T04:44:21.843Z,3.90
2022-09-02T04:46:50.411Z,5.68
2022-09-02T04:49:19.926Z,4.28
2022-09-02T04:52:08.205Z,6.32
2022-09-02T04:54:35.807Z,2.85
2022-09-02T04:57:02.914Z,7.85
2022-09-02T04:59:30.058Z,3.35
2022-09-02T05:02:05.897Z,4.07
2022-09-02T05:04:33.563Z,6.55
2022-09-02T05:07:01.975Z,2.80
2022-09-02T05:09:32.378Z,3.10
2022-09-02T05:12:04.358Z,4.80
2022-09-02T05:14:48.911Z,3.05
2022-09-02T05:17:18.036Z,2.85
2022-09-02T05:19:47.413Z,4.13
2022-09-02T05:22:16.421Z,2.35
2022-09-02T05:24:44.540Z,3.22
2022-09-02T05:27:16.318Z,4.20
2022-09-02T05:29:45.627Z,7.38
2022-09-02T05:32:14.850Z,3.50
2022-09-02T05:34:43.585Z,6.22
2022-09-02T05:37:11.142Z,5.22
2022-09-02T05:39:38.732Z,6.03
2022-09-02T05:42:07.402Z,14.15
2022-09-02T05:44:36.198Z,6.60
2022-09-02T05:47:04.940Z,5.15
2022-09-02T05:49:32.680Z,4.50
2022-09-02T05:52:06.420Z,4.28
2022-09-02T05:54:40.133Z,7.72
2022-09-02T05:57:13.568Z,5.65
2022-09-02T05:59:59.157Z,10.23
2022-09-02T06:02:41.045Z,11.25
2022-09-02T06:05:12.199Z,8.05
2022-09-02T06:07:43.614Z,8.85
2022-09-02T06:10:11.351Z,6.28
2022-09-02T06:12:42.490Z,8.43
2022-09-02T06:15:10.682Z,11.18
2022-09-02T06:17:39.732Z,5.15
2022-09-02T06:20:45.875Z,8.00
2022-09-02T06:23:14.999Z,7.18
2022-09-02T06:25:45.232Z,5.72
2022-09-02T06:28:13.701Z,7.45
2022-09-02T06:30:45.756Z,5.07
2022-09-02T06:33:12.810Z,7.25
2022-09-02T06:35:44.584Z,7.38
2022-09-02T06:38:14.756Z,6.28
2022-09-02T06:40:51.409Z,3.83
2022-09-02T06:43:24.170Z,4.90
2022-09-02T06:46:08.369Z,5.60
2022-09-02T06:48:37.024Z,3.08
2022-09-02T06:51:06.194Z,9.75
2022-09-02T06:53:33.070Z,3.00
2022-09-02T06:56:00.502Z,5.03
2022-09-02T06:58:27.545Z,4.75
2022-09-02T07:00:54.694Z,5.53
2022-09-02T07:03:40.586Z,3.63
2022-09-02T07:06:10.126Z,3.58
2022-09-02T07:08:44.382Z,5.03
2022-09-02T07:11:22.784Z,4.68
2022-09-02T07:13:52.539Z,8.63
2022-09-02T07:16:26.851Z,5.30
2022-09-02T07:18:57.658Z,4.55
2022-09-02T07:21:26.364Z,4.32
2022-09-02T07:23:53.681Z,4.53
2022-09-02T07:26:21.998Z,4.25
2022-09-02T07:28:52.301Z,5.00
2022-09-02T07:31:23.375Z,2.15
2022-09-02T07:33:50.685Z,3.53
2022-09-02T07:36:21.594Z,3.63
2022-09-02T07:39:09.620Z,4.03
2022-09-02T07:41:54.963Z,4.10
2022-09-02T07:44:23.130Z,2.85
2022-09-02T07:46:52.522Z,4.18
2022-09-02T07:49:24.052Z,3.80
2022-09-02T07:51:52.601Z,2.63
2022-09-02T07:54:41.310Z,4.32
2022-09-02T07:57:08.817Z,5.32
2022-09-02T07:59:35.866Z,4.70
2022-09-02T08:02:03.355Z,5.78
2022-09-02T08:04:30.328Z,4.90
2022-09-02T08:06:57.445Z,4.75
2022-09-02T08:09:24.495Z,3.90
2022-09-02T08:12:09.836Z,4.70
2022-09-02T08:14:36.757Z,10.98
2022-09-02T08:17:06.221Z,6.78
2022-09-02T08:19:33.635Z,4.22
2022-09-02T08:22:06.388Z,3.33
2022-09-02T08:24:52.716Z,4.28
2022-09-02T08:27:19.645Z,4.70
2022-09-02T08:29:46.414Z,3.03
2022-09-02T08:32:13.673Z,6.43
2022-09-02T08:34:40.616Z,6.40
2022-09-02T08:37:08.257Z,2.97
2022-09-02T08:39:53.552Z,7.30
2022-09-02T08:42:51.585Z,4.90
2022-09-02T08:45:28.380Z,2.22
2022-09-02T08:48:08.285Z,7.22
2022-09-02T08:50:38.695Z,4.82
2022-09-02T08:53:35.049Z,5.65
2022-09-02T08:56:05.864Z,4.38
2022-09-02T08:58:44.955Z,5.03
2022-09-02T09:01:31.280Z,4.40
2022-09-02T09:04:10.189Z,7.65
2022-09-02T09:07:04.807Z,4.85
2022-09-02T09:09:45.858Z,3.42
2022-09-02T09:12:54.521Z,5.35
2022-09-02T09:15:34.065Z,7.00
2022-09-02T09:18:03.704Z,5.70
2022-09-02T09:20:33.663Z,4.72
2022-09-02T09:23:21.867Z,2.00
2022-09-02T09:25:53.034Z,5.07
2022-09-02T09:28:19.963Z,4.90
2022-09-02T09:30:47.444Z,4.18
2022-09-02T09:33:18.383Z,6.03
2022-09-02T09:35:51.477Z,2.08
2022-09-02T09:38:30.120Z,4.03
2022-09-02T09:41:22.007Z,4.78
2022-09-02T09:43:48.877Z,4.22
2022-09-02T09:46:32.242Z,7.18
2022-09-02T09:48:59.640Z,1.80
2022-09-02T09:51:55.624Z,2.25
2022-09-02T09:54:26.793Z,2.83
2022-09-02T09:57:21.696Z,2.60
2022-09-02T09:59:57.171Z,3.28
2022-09-02T10:02:27.392Z,1.65
2022-09-02T10:05:31.473Z,2.47
2022-09-02T10:08:17.970Z,2.50
2022-09-02T10:11:27.633Z,3.67
2022-09-02T10:14:04.093Z,2.33
2022-09-02T10:17:09.348Z,5.88
2022-09-02T10:19:56.704Z,1.85
2022-09-02T10:22:59.945Z,3.03
2022-09-02T10:26:12.764Z,2.35
2022-09-02T10:29:07.757Z,4.72
2022-09-02T10:32:09.881Z,1.85
2022-09-02T10:35:08.531Z,3.63
2022-09-02T10:37:54.144Z,4.97
2022-09-02T10:40:29.327Z,3.65
2022-09-02T10:43:07.116Z,1.13
2022-09-02T10:45:47.061Z,1.85
2022-09-02T10:48:35.765Z,2.17
2022-09-02T10:51:23.938Z,1.75
2022-09-02T10:54:11.418Z,2.17
2022-09-02T10:57:20.795Z,2.45
2022-09-02T11:00:09.598Z,3.92
2022-09-02T11:03:05.721Z,1.25
2022-09-02T11:06:05.430Z,2.65
2022-09-02T11:08:43.811Z,5.38
2022-09-02T11:11:25.160Z,1.80
2022-09-02T11:17:23.445Z,3.85
2022-09-02T11:19:58.865Z,3.85
2022-09-02T11:23:08.876Z,3.28
2022-09-02T11:26:01.293Z,5.65
2022-09-02T11:28:31.288Z,4.00
2022-09-02T11:31:19.274Z,3.50
2022-09-02T11:34:17.537Z,5.30
2022-09-02T11:36:44.749Z,5.10
2022-09-02T11:39:51.631Z,1.67
2022-09-02T11:42:57.126Z,3.17
2022-09-02T11:45:51.858Z,1.30
2022-09-02T11:48:37.778Z,1.70
2022-09-02T11:51:30.442Z,1.85
2022-09-02T11:54:01.116Z,3.47
2022-09-02T11:56:31.422Z,2.40
2022-09-02T11:58:58.648Z,1.98
2022-09-02T12:01:43.722Z,5.50
2022-09-02T12:07:17.301Z,1.83
2022-09-02T12:09:47.621Z,0.93
2022-09-02T12:12:36.883Z,3.50
2022-09-02T12:15:07.772Z,2.53
2022-09-02T12:17:53.314Z,3.22
2022-09-02T12:20:40.177Z,0.65
2022-09-02T12:23:10.408Z,3.13
2022-09-02T12:25:48.232Z,2.78
2022-09-02T12:28:24.131Z,1.90
2022-09-02T12:31:15.851Z,1.50
2022-09-02T12:33:51.807Z,3.05
2022-09-02T12:36:37.171Z,3.00
2022-09-02T12:39:23.598Z,3.90
2022-09-02T12:42:11.937Z,1.85
2022-09-02T12:45:28.979Z,4.78
2022-09-02T12:48:14.196Z,0.50
2022-09-02T12:50:44.985Z,1.77
2022-09-02T12:53:35.798Z,3.60
2022-09-02T12:56:13.464Z,1.52
2022-09-02T12:58:46.444Z,1.33
2022-09-02T13:01:17.138Z,2.45
2022-09-02T13:04:08.745Z,1.90
2022-09-02T13:06:45.282Z,0.80
2022-09-02T13:09:48.886Z,2.55
2022-09-02T13:12:28.849Z,1.90
2022-09-02T13:15:02.005Z,0.95
2022-09-02T13:18:07.670Z,2.33
2022-09-02T13:20:59.655Z,0.50
2022-09-02T13:23:55.500Z,3.58
2022-09-02T13:27:00.712Z,1.95
2022-09-02T13:30:05.007Z,3.08
2022-09-02T13:32:33.293Z,1.95
2022-09-02T13:35:06.749Z,2.10
2022-09-02T13:40:35.237Z,0.93
2022-09-02T13:43:18.805Z,3.47
2022-09-02T13:45:47.819Z,1.17
2022-09-02T13:48:25.249Z,1.38
2022-09-02T13:50:55.149Z,3.35
2022-09-02T13:53:45.842Z,1.50
2022-09-02T13:56:27.380Z,1.65
2022-09-02T13:58:58.543Z,4.45
2022-09-02T14:01:38.139Z,1.02
2022-09-02T14:04:14.938Z,2.08
2022-09-02T14:06:45.676Z,3.22
2022-09-02T14:09:22.301Z,1.10
2022-09-02T14:11:50.332Z,0.52
2022-09-02T14:14:41.080Z,1.65
2022-09-02T14:17:27.313Z,1.23
2022-09-02T14:20:16.934Z,1.58
2022-09-02T14:22:44.436Z,2.40
2022-09-02T14:25:17.680Z,1.55
2022-09-02T14:27:53.196Z,3.67
2022-09-02T14:30:32.380Z,2.58
2022-09-02T14:33:18.867Z,1.75
2022-09-02T14:36:06.332Z,0.98
2022-09-02T14:38:37.104Z,2.83
2022-09-02T14:41:25.452Z,5.38
2022-09-02T14:43:58.923Z,1.98
2022-09-02T14:46:36.155Z,1.85
2022-09-02T14:49:26.999Z,1.70
2022-09-02T14:52:15.792Z,2.85
2022-09-02T14:54:51.791Z,4.53
2022-09-02T14:57:24.602Z,1.95
2022-09-02T14:59:52.179Z,1.25
2022-09-02T15:02:32.817Z,1.20
2022-09-02T15:05:02.206Z,2.00
2022-09-02T15:07:29.553Z,1.45
2022-09-02T15:09:56.372Z,4.10
2022-09-02T15:15:10.587Z,2.53
2022-09-02T15:17:37.528Z,3.17
2022-09-02T15:20:06.374Z,2.97
2022-09-02T15:22:38.657Z,1.60
2022-09-02T15:25:11.133Z,2.45
2022-09-02T15:27:38.075Z,2.08
2022-09-02T15:30:07.227Z,3.25
2022-09-02T15:32:34.240Z,2.78
2022-09-02T15:35:01.104Z,1.50
2022-09-02T15:37:28.017Z,3.03
2022-09-02T15:39:54.800Z,4.68
2022-09-02T15:42:22.207Z,2.80
2022-09-02T15:44:49.688Z,3.70
2022-09-02T15:47:16.713Z,3.45
2022-09-02T15:49:43.478Z,3.47
2022-09-02T15:52:11.308Z,3.55
2022-09-02T15:54:38.109Z,2.42
2022-09-02T15:57:05.318Z,3.25
2022-09-02T15:59:32.324Z,1.08
2022-09-02T16:01:59.527Z,3.05
2022-09-02T16:04:27.558Z,2.20
2022-09-02T16:06:54.770Z,2.15
2022-09-02T16:09:22.157Z,1.55
2022-09-02T16:11:51.928Z,1.10
2022-09-02T16:14:20.547Z,2.13
2022-09-02T16:16:56.677Z,2.28
2022-09-02T16:22:09.771Z,2.65
2022-09-02T16:24:36.889Z,2.45
2022-09-02T16:27:03.988Z,2.15
2022-09-02T16:29:30.820Z,1.05
2022-09-02T16:32:14.401Z,5.78
2022-09-02T16:34:46.847Z,6.82
2022-09-02T16:37:14.480Z,2.25
2022-09-02T16:39:42.229Z,3.13
2022-09-02T16:42:09.113Z,5.40
2022-09-02T16:44:54.547Z,2.92
2022-09-02T16:47:21.586Z,1.00
2022-09-02T16:49:48.892Z,1.80
2022-09-02T16:52:15.699Z,1.48
2022-09-02T16:54:44.039Z,1.20
2022-09-02T16:57:11.196Z,1.80
2022-09-02T16:59:37.972Z,3.05
2022-09-02T17:02:04.935Z,3.80
2022-09-02T17:04:31.740Z,1.92
2022-09-02T17:06:58.711Z,2.38
2022-09-02T17:09:25.655Z,5.72
2022-09-02T17:11:53.758Z,1.77
2022-09-02T17:14:21.772Z,1.88
2022-09-02T17:16:50.593Z,2.72
2022-09-02T17:19:22.737Z,2.45
2022-09-02T17:21:53.438Z,4.10
2022-09-02T17:24:27.776Z,2.03
2022-09-02T17:26:56.301Z,1.85
2022-09-02T17:29:48.673Z,3.80
2022-09-02T17:32:11.705Z,3.95
2022-09-02T17:34:38.661Z,0.68
2022-09-02T17:37:05.695Z,1.48
2022-09-02T17:39:36.349Z,3.00
2022-09-02T17:42:06.442Z,1.52
2022-09-02T17:44:37.570Z,3.40
2022-09-02T17:49:52.756Z,1.95
2022-09-02T17:52:22.675Z,2.47
2022-09-02T17:54:52.344Z,1.85
2022-09-02T17:57:26.484Z,3.03
2022-09-02T18:00:08.074Z,1.95
2022-09-02T18:05:32.530Z,2.88
2022-09-02T18:08:35.404Z,1.67
2022-09-02T18:11:05.506Z,1.60
2022-09-02T18:13:41.728Z,2.53
2022-09-02T18:16:32.293Z,1.33
2022-09-02T18:19:16.643Z,3.10
2022-09-02T18:22:11.673Z,2.13
2022-09-02T18:25:26.280Z,2.63
2022-09-02T18:28:05.830Z,4.93
2022-09-02T18:31:06.981Z,3.00
2022-09-02T18:34:13.014Z,4.10
2022-09-02T18:37:09.869Z,3.33
2022-09-02T18:43:06.816Z,6.20
2022-09-02T18:45:43.734Z,2.08
2022-09-02T18:48:35.699Z,4.05
2022-09-02T18:51:20.767Z,2.70
2022-09-02T18:53:51.558Z,8.02
2022-09-02T18:56:22.635Z,3.78
2022-09-02T18:59:16.601Z,6.57
2022-09-02T19:01:54.802Z,8.15
2022-09-02T19:04:29.460Z,4.63
2022-09-02T19:07:16.812Z,6.57
2022-09-02T19:09:43.819Z,5.63
2022-09-02T19:12:10.971Z,9.20
2022-09-02T19:14:56.935Z,7.00
2022-09-02T19:17:23.802Z,5.55
2022-09-02T19:19:51.191Z,9.13
2022-09-02T19:25:14.799Z,10.27
2022-09-02T19:27:43.569Z,9.98
2022-09-02T19:30:19.037Z,8.75
2022-09-02T19:32:49.038Z,9.57
2022-09-02T19:35:19.166Z,14.93
2022-09-02T19:37:51.125Z,13.10
2022-09-02T19:40:33.132Z,14.13
2022-09-02T19:43:18.975Z,10.13
2022-09-02T19:45:51.309Z,16.15
2022-09-02T19:48:19.815Z,10.25
2022-09-02T19:50:48.314Z,12.27
2022-09-02T19:53:22.420Z,14.68
2022-09-02T19:56:08.329Z,12.55
2022-09-02T19:58:54.050Z,9.75
2022-09-02T20:01:20.924Z,17.20
2022-09-02T20:03:47.959Z,16.88
2022-09-02T20:06:14.778Z,17.98
2022-09-02T20:08:41.640Z,13.18
2022-09-02T20:13:53.552Z,13.30
2022-09-02T20:16:23.848Z,19.02
2022-09-02T20:18:53.538Z,16.67
2022-09-02T20:21:22.588Z,18.90
2022-09-02T20:23:49.492Z,9.30
2022-09-02T20:26:34.272Z,7.80
2022-09-02T20:29:22.969Z,10.07
2022-09-02T20:32:04.707Z,18.17
2022-09-02T20:34:57.133Z,14.43
2022-09-02T20:37:59.720Z,11.15
2022-09-02T20:40:36.991Z,15.65
2022-09-02T20:43:20.822Z,13.65
2022-09-02T20:49:26.887Z,13.15
2022-09-02T20:52:07.403Z,14.23
2022-09-02T20:55:11.378Z,10.75
2022-09-02T20:58:18.145Z,14.80
2022-09-02T21:00:56.818Z,15.52
2022-09-02T21:03:25.986Z,15.52
2022-09-02T21:05:59.032Z,13.68
2022-09-02T21:08:35.441Z,15.48
2022-09-02T21:11:09.696Z,12.18
2022-09-02T21:13:52.835Z,17.80
2022-09-02T21:16:26.615Z,15.80
2022-09-02T21:19:05.699Z,16.30
2022-09-02T21:21:41.457Z,14.00
2022-09-02T21:24:14.158Z,13.52
2022-09-02T21:26:59.565Z,13.13
2022-09-02T21:30:22.927Z,21.48
2022-09-02T21:33:03.421Z,18.35
2022-09-02T21:35:38.353Z,14.15
2022-09-02T21:38:38.487Z,19.10
2022-09-02T21:41:20.053Z,20.08
2022-09-02T21:43:58.893Z,15.60
2022-09-02T21:46:36.235Z,28.88
2022-09-02T21:49:13.041Z,9.02
2022-09-02T21:54:40.794Z,17.27
2022-09-02T21:57:28.942Z,12.23
2022-09-02T22:00:21.822Z,9.65
2022-09-02T22:02:58.150Z,27.15
2022-09-02T22:05:42.354Z,13.73
2022-09-02T22:08:35.559Z,17.33
2022-09-02T22:11:22.433Z,10.63
2022-09-02T22:14:30.842Z,18.30
2022-09-02T22:17:04.960Z,15.27
2022-09-02T22:19:39.028Z,19.00
2022-09-02T22:22:24.876Z,12.38
2022-09-02T22:24:52.585Z,14.90
2022-09-02T22:27:40.345Z,16.92
2022-09-02T22:30:11.736Z,26.25
2022-09-02T22:33:07.705Z,20.98
2022-09-02T22:36:00.763Z,15.65
2022-09-02T22:38:49.124Z,17.85
2022-09-02T22:41:31.168Z,15.20
2022-09-02T22:44:09.595Z,7.82
2022-09-02T22:47:18.337Z,17.58
2022-09-02T22:50:13.390Z,7.70
2022-09-02T22:52:49.463Z,14.55
2022-09-02T22:55:38.775Z,16.30
2022-09-02T22:58:21.428Z,17.48
2022-09-02T23:01:17.289Z,19.38
2022-09-02T23:04:09.040Z,22.90
2022-09-02T23:06:35.928Z,15.07
2022-09-02T23:09:10.344Z,18.15
2022-09-02T23:11:58.640Z,13.75
2022-09-02T23:17:37.865Z,16.27
2022-09-02T23:20:18.843Z,13.68
2022-09-02T23:23:01.267Z,12.20
2022-09-02T23:25:31.255Z,13.02
2022-09-02T23:28:10.190Z,18.13
2022-09-02T23:30:52.562Z,17.83
2022-09-02T23:33:29.332Z,17.08
2022-09-02T23:36:34.374Z,16.70
2022-09-02T23:39:18.722Z,17.33
2022-09-02T23:41:46.267Z,16.30
2022-09-02T23:44:13.066Z,23.02
2022-09-02T23:49:52.843Z,12.07
2022-09-02T23:52:56.167Z,23.08
2022-09-02T23:55:41.145Z,15.98
2022-09-02T23:58:23.572Z,15.75
